createdAt,value
2018-03-22T00:02:21.891Z,95400.81
2018-03-22T00:04:47.855Z,95403.16
2018-03-22T00:07:13.856Z,95404.94
2018-03-22T00:09:39.847Z,95394.91
2018-03-22T00:12:05.850Z,95400.41
2018-03-22T00:14:31.848Z,95404.53
2018-03-22T00:16:57.844Z,95403.16
2018-03-22T00:19:23.844Z,95401.94
2018-03-22T00:21:49.836Z,95398.00
2018-03-22T00:24:15.869Z,95395.63
2018-03-22T00:26:41.823Z,95393.88
2018-03-22T00:29:07.827Z,95388.94
2018-03-22T00:31:33.819Z,95391.07
2018-03-22T00:33:59.818Z,95391.07
2018-03-22T00:36:25.809Z,95385.78
2018-03-22T00:38:51.793Z,95385.16
2018-03-22T00:41:17.813Z,95385.73
2018-03-22T00:43:43.830Z,95389.69
2018-03-22T00:46:09.781Z,95386.13
2018-03-22T00:48:35.803Z,95376.66
2018-03-22T00:51:01.756Z,95371.16
2018-03-22T00:53:27.754Z,95373.91
2018-03-22T00:55:53.742Z,95370.38
2018-03-22T00:58:19.767Z,95374.72
2018-03-22T01:00:45.796Z,95358.38
2018-03-22T01:03:11.749Z,95349.34
2018-03-22T01:05:37.748Z,95339.72
2018-03-22T01:08:03.731Z,95353.47
2018-03-22T01:10:29.752Z,95350.53
2018-03-22T01:12:55.709Z,95347.97
2018-03-22T01:15:21.726Z,95361.88
2018-03-22T01:17:47.689Z,95356.78
2018-03-22T01:20:13.673Z,95358.16
2018-03-22T01:22:39.666Z,95358.00
2018-03-22T01:25:05.666Z,95353.79
2018-03-22T01:27:31.649Z,95355.36
2018-03-22T01:29:57.638Z,95348.69
2018-03-22T01:32:23.660Z,95344.16
2018-03-22T01:34:49.618Z,95337.47
2018-03-22T01:37:15.643Z,95343.95
2018-03-22T01:39:41.602Z,95337.63
2018-03-22T01:42:07.598Z,95336.26
2018-03-22T01:44:33.588Z,95338.39
2018-03-22T01:46:59.602Z,95346.48
2018-03-22T01:49:25.588Z,95338.39
2018-03-22T01:51:51.580Z,95338.23
2018-03-22T01:54:17.602Z,95344.30
2018-03-22T01:56:43.552Z,95341.14
2018-03-22T01:59:09.582Z,95347.05
2018-03-22T02:01:35.600Z,95345.27
2018-03-22T02:04:01.562Z,95339.20
2018-03-22T02:06:27.560Z,95348.18
2018-03-22T02:08:53.570Z,95343.27
2018-03-22T02:11:19.552Z,95339.92
2018-03-22T02:13:45.578Z,95348.18
2018-03-22T02:16:11.528Z,95344.45
2018-03-22T02:18:37.525Z,95347.61
2018-03-22T02:21:03.548Z,95348.37
2018-03-22T02:23:29.510Z,95335.38
2018-03-22T02:25:55.499Z,95325.55
2018-03-22T02:28:21.493Z,95333.40
2018-03-22T02:30:47.486Z,95331.05
2018-03-22T02:33:13.482Z,95323.56
2018-03-22T02:35:39.469Z,95321.77
2018-03-22T02:38:05.466Z,95310.20
2018-03-22T02:40:31.530Z,95318.62
2018-03-22T02:42:57.451Z,95333.34
2018-03-22T02:45:23.443Z,95320.97
2018-03-22T02:50:15.459Z,95302.52
2018-03-22T02:52:41.415Z,95293.46
2018-03-22T02:55:07.437Z,95294.84
2018-03-22T02:57:33.433Z,95299.55
2018-03-22T02:59:59.400Z,95295.23
2018-03-22T03:02:25.384Z,95288.16
2018-03-22T03:04:51.383Z,95284.59
2018-03-22T03:07:17.374Z,95284.02
2018-03-22T03:09:43.366Z,95280.87
2018-03-22T03:12:09.348Z,95275.93
2018-03-22T03:14:35.370Z,95261.37
2018-03-22T03:17:01.320Z,95260.59
2018-03-22T03:19:27.314Z,95255.70
2018-03-22T03:24:19.307Z,95255.09
2018-03-22T03:26:45.298Z,95251.38
2018-03-22T03:29:11.316Z,95243.28
2018-03-22T03:31:37.309Z,95247.41
2018-03-22T03:34:03.331Z,95243.84
2018-03-22T03:36:29.294Z,95243.84
2018-03-22T03:38:55.280Z,95239.10
2018-03-22T03:41:21.334Z,95233.44
2018-03-22T03:43:47.262Z,95236.19
2018-03-22T03:46:13.288Z,95245.41
2018-03-22T03:48:39.251Z,95243.63
2018-03-22T03:51:05.271Z,95238.48
2018-03-22T03:53:31.237Z,95226.31
2018-03-22T03:55:57.230Z,95213.33
2018-03-22T03:58:23.216Z,95228.66
2018-03-22T04:00:49.236Z,95228.66
2018-03-22T04:03:15.227Z,95215.11
2018-03-22T04:05:41.253Z,95206.66
2018-03-22T04:08:07.226Z,95227.89
2018-03-22T04:10:33.212Z,95245.36
2018-03-22T04:12:59.208Z,95243.98
2018-03-22T04:15:25.224Z,95234.11
2018-03-22T04:17:51.186Z,95229.20
2018-03-22T04:20:17.206Z,95228.61
2018-03-22T04:22:43.165Z,95225.86
2018-03-22T04:25:09.165Z,95232.93
2018-03-22T04:27:35.153Z,95234.70
2018-03-22T04:30:01.170Z,95239.00
2018-03-22T04:32:27.161Z,95235.63
2018-03-22T04:34:53.218Z,95230.91
2018-03-22T04:39:45.258Z,95230.34
2018-03-22T04:42:11.265Z,95232.52
2018-03-22T04:44:37.288Z,95226.05
2018-03-22T04:47:03.247Z,95225.41
2018-03-22T04:49:31.632Z,95224.03
2018-03-22T04:51:55.404Z,95227.75
2018-03-22T04:54:21.398Z,95232.47
2018-03-22T04:56:47.439Z,95237.16
2018-03-22T04:59:13.425Z,95235.22
2018-03-22T05:01:39.446Z,95227.94
2018-03-22T05:04:05.421Z,95219.45
2018-03-22T05:06:31.418Z,95207.07
2018-03-22T05:08:57.415Z,95199.69
2018-03-22T05:11:23.442Z,95211.49
2018-03-22T05:13:49.404Z,95211.39
2018-03-22T05:16:15.398Z,95204.77
2018-03-22T05:18:41.463Z,95205.49
2018-03-22T05:21:07.471Z,95223.58
2018-03-22T05:23:33.413Z,95209.14
2018-03-22T05:25:59.458Z,95201.36
2018-03-22T05:28:25.420Z,95206.45
2018-03-22T05:30:51.423Z,95201.97
2018-03-22T05:33:17.412Z,95191.66
2018-03-22T05:35:43.400Z,95192.84
2018-03-22T05:38:09.398Z,95189.55
2018-03-22T05:40:35.391Z,95191.23
2018-03-22T05:43:01.423Z,95188.23
2018-03-22T05:45:27.442Z,95196.94
2018-03-22T05:47:53.425Z,95190.38
2018-03-22T05:50:19.453Z,95185.33
2018-03-22T05:52:47.410Z,95197.86
2018-03-22T05:55:11.455Z,95197.60
2018-03-22T05:57:37.449Z,95175.48
2018-03-22T06:00:03.557Z,95170.50
2018-03-22T06:02:29.544Z,95179.68
2018-03-22T06:04:55.577Z,95184.67
2018-03-22T06:07:21.604Z,95183.86
2018-03-22T06:09:47.629Z,95184.05
2018-03-22T06:12:13.620Z,95185.55
2018-03-22T06:14:39.624Z,95190.28
2018-03-22T06:17:05.632Z,95187.73
2018-03-22T06:19:31.594Z,95192.37
2018-03-22T06:21:57.616Z,95197.31
2018-03-22T06:24:25.544Z,95204.50
2018-03-22T06:26:49.565Z,95205.47
2018-03-22T06:29:17.536Z,95216.88
2018-03-22T06:31:41.604Z,95226.05
2018-03-22T06:34:07.624Z,95224.89
2018-03-22T06:36:33.622Z,95211.08
2018-03-22T06:38:59.642Z,95200.43
2018-03-22T06:41:25.681Z,95199.57
2018-03-22T06:43:51.683Z,95197.06
2018-03-22T06:46:17.686Z,95184.28
2018-03-22T06:48:43.691Z,95173.22
2018-03-22T06:51:09.708Z,95160.03
2018-03-22T06:53:35.709Z,95160.03
2018-03-22T06:56:01.666Z,95152.02
2018-03-22T06:58:27.669Z,95180.05
2018-03-22T07:00:53.685Z,95195.75
2018-03-22T07:03:19.668Z,95207.32
2018-03-22T07:05:45.659Z,95199.47
2018-03-22T07:08:11.698Z,95186.83
2018-03-22T07:10:37.722Z,95192.14
2018-03-22T07:13:03.744Z,95190.34
2018-03-22T07:15:29.734Z,95179.66
2018-03-22T07:17:55.774Z,95173.38
2018-03-22T07:20:21.867Z,95180.88
2018-03-22T07:22:47.849Z,95179.09
2018-03-22T07:25:13.907Z,95167.69
2018-03-22T07:27:39.937Z,95152.86
2018-03-22T07:30:05.910Z,95152.70
2018-03-22T07:32:31.909Z,95143.42
2018-03-22T07:34:57.901Z,95131.66
2018-03-22T07:37:23.927Z,95134.22
2018-03-22T07:39:49.911Z,95128.16
2018-03-22T07:42:15.872Z,95129.72
2018-03-22T07:44:41.886Z,95129.72
2018-03-22T07:47:07.884Z,95123.01
2018-03-22T07:49:33.894Z,95128.16
2018-03-22T07:51:59.875Z,95127.53
2018-03-22T07:54:25.870Z,95135.22
2018-03-22T07:56:51.866Z,95139.16
2018-03-22T07:59:17.928Z,95132.28
2018-03-22T08:01:43.882Z,95131.71
2018-03-22T08:04:09.907Z,95126.83
2018-03-22T08:06:35.926Z,95114.39
2018-03-22T08:09:01.951Z,95108.33
2018-03-22T08:11:28.000Z,95103.59
2018-03-22T08:13:53.970Z,95101.61
2018-03-22T08:16:19.956Z,95097.28
2018-03-22T08:18:46.030Z,95095.09
2018-03-22T08:21:11.971Z,95092.34
2018-03-22T08:23:37.928Z,95091.77
2018-03-22T08:26:03.938Z,95094.28
2018-03-22T08:28:29.934Z,95085.25
2018-03-22T08:30:55.954Z,95079.80
2018-03-22T08:33:21.941Z,95080.37
2018-03-22T08:35:48.027Z,95072.47
2018-03-22T08:38:14.015Z,95075.44
2018-03-22T08:40:40.019Z,95071.09
2018-03-22T08:43:06.014Z,95067.13
2018-03-22T08:45:32.004Z,95060.66
2018-03-22T08:47:58.002Z,95055.16
2018-03-22T08:50:24.028Z,95057.75
2018-03-22T08:52:50.015Z,95053.63
2018-03-22T08:55:16.003Z,95055.77
2018-03-22T08:57:41.992Z,95051.44
2018-03-22T09:00:08.041Z,95047.31
2018-03-22T09:02:34.032Z,95045.13
2018-03-22T09:05:00.021Z,95040.03
2018-03-22T09:07:26.010Z,95035.91
2018-03-22T09:09:52.048Z,95030.56
2018-03-22T09:12:18.005Z,95024.50
2018-03-22T09:14:43.999Z,95023.08
2018-03-22T09:17:09.994Z,95021.54
2018-03-22T09:19:35.982Z,95012.08
2018-03-22T09:24:27.996Z,94995.36
2018-03-22T09:26:53.994Z,94995.17
2018-03-22T09:29:19.996Z,94991.23
2018-03-22T09:31:46.023Z,94991.23
2018-03-22T09:34:12.008Z,94982.58
2018-03-22T09:36:38.029Z,94977.69
2018-03-22T09:39:04.077Z,94967.05
2018-03-22T09:41:30.086Z,94964.30
2018-03-22T09:43:56.142Z,94959.61
2018-03-22T09:46:22.124Z,94958.63
2018-03-22T09:48:48.159Z,94942.30
2018-03-22T09:51:14.177Z,94941.32
2018-03-22T09:53:40.225Z,94944.44
2018-03-22T09:56:06.238Z,94940.71
2018-03-22T09:58:32.268Z,94939.91
2018-03-22T10:00:58.324Z,94937.72
2018-03-22T10:03:24.341Z,94931.81
2018-03-22T10:05:50.548Z,94931.41
2018-03-22T10:08:16.543Z,94929.43
2018-03-22T10:10:42.559Z,94920.20
2018-03-22T10:13:08.533Z,94934.77
2018-03-22T10:15:34.557Z,94927.89
2018-03-22T10:18:00.547Z,94923.52
2018-03-22T10:20:26.541Z,94923.31
2018-03-22T10:22:52.565Z,94923.92
2018-03-22T10:25:26.239Z,94918.83
2018-03-22T10:27:52.234Z,94918.83
2018-03-22T10:30:18.257Z,94916.84
2018-03-22T10:32:44.292Z,94917.81
2018-03-22T10:35:10.251Z,94910.17
2018-03-22T10:37:36.237Z,94909.00
2018-03-22T10:40:02.226Z,94905.03
2018-03-22T10:42:28.232Z,94909.56
2018-03-22T10:44:54.224Z,94905.44
2018-03-22T10:47:20.221Z,94899.94
2018-03-22T10:49:46.219Z,94906.98
2018-03-22T10:52:12.263Z,94913.45
2018-03-22T10:54:38.226Z,94897.55
2018-03-22T10:57:04.212Z,94898.92
2018-03-22T10:59:30.205Z,94880.85
2018-03-22T11:01:56.225Z,94878.87
2018-03-22T11:04:22.180Z,94886.72
2018-03-22T11:06:48.198Z,94884.77
2018-03-22T11:09:14.191Z,94885.34
2018-03-22T11:11:40.189Z,94891.08
2018-03-22T11:14:06.180Z,94887.12
2018-03-22T11:16:32.167Z,94877.66
2018-03-22T11:18:58.177Z,94871.59
2018-03-22T11:21:24.169Z,94870.21
2018-03-22T11:23:50.162Z,94869.03
2018-03-22T11:26:16.213Z,94853.71
2018-03-22T11:28:42.147Z,94850.80
2018-03-22T11:31:08.166Z,94848.78
2018-03-22T11:33:34.190Z,94860.55
2018-03-22T11:36:00.170Z,94866.24
2018-03-22T11:38:26.174Z,94853.67
2018-03-22T11:40:52.137Z,94851.28
2018-03-22T11:43:18.128Z,94843.20
2018-03-22T11:45:44.175Z,94840.28
2018-03-22T11:48:10.170Z,94838.30
2018-03-22T11:50:36.161Z,94837.70
2018-03-22T11:53:02.171Z,94821.20
2018-03-22T11:55:28.165Z,94826.66
2018-03-22T11:57:54.152Z,94820.14
2018-03-22T12:00:20.189Z,94804.66
2018-03-22T12:02:46.143Z,94798.95
2018-03-22T12:05:12.178Z,94794.83
2018-03-22T12:07:38.204Z,94788.13
2018-03-22T12:10:04.229Z,94790.14
2018-03-22T12:12:30.291Z,94796.77
2018-03-22T12:14:56.268Z,94795.76
2018-03-22T12:19:48.317Z,94800.28
2018-03-22T12:22:14.365Z,94801.47
2018-03-22T12:24:40.373Z,94801.09
2018-03-22T12:27:06.384Z,94808.34
2018-03-22T12:29:32.417Z,94811.09
2018-03-22T12:31:58.475Z,94812.42
2018-03-22T12:34:24.457Z,94814.40
2018-03-22T12:36:50.478Z,94806.55
2018-03-22T12:39:16.494Z,94790.18
2018-03-22T12:41:42.485Z,94793.13
2018-03-22T12:44:08.489Z,94778.41
2018-03-22T12:46:34.478Z,94778.86
2018-03-22T12:49:00.517Z,94775.50
2018-03-22T12:51:26.568Z,94775.75
2018-03-22T12:53:52.559Z,94757.14
2018-03-22T12:56:18.526Z,94751.03
2018-03-22T12:58:44.513Z,94754.63
2018-03-22T13:01:10.506Z,94745.45
2018-03-22T13:03:36.518Z,94740.03
2018-03-22T13:06:02.525Z,94715.88
2018-03-22T13:08:28.504Z,94714.73
2018-03-22T13:10:54.526Z,94716.16
2018-03-22T13:13:20.513Z,94723.43
2018-03-22T13:15:46.495Z,94713.00
2018-03-22T13:18:12.498Z,94719.00
2018-03-22T13:20:38.480Z,94738.08
2018-03-22T13:23:04.513Z,94735.33
2018-03-22T13:25:30.558Z,94731.17
2018-03-22T13:27:56.509Z,94730.56
2018-03-22T13:30:22.521Z,94709.53
2018-03-22T13:32:48.526Z,94711.11
2018-03-22T13:35:14.515Z,94694.17
2018-03-22T13:37:40.535Z,94691.62
2018-03-22T13:40:06.528Z,94695.14
2018-03-22T13:42:32.494Z,94685.52
2018-03-22T13:44:58.482Z,94665.83
2018-03-22T13:47:24.509Z,94660.73
2018-03-22T13:49:50.470Z,94651.08
2018-03-22T13:52:16.460Z,94643.63
2018-03-22T13:54:42.454Z,94644.60
2018-03-22T13:57:08.444Z,94638.34
2018-03-22T13:59:34.470Z,94639.91
2018-03-22T14:02:00.430Z,94636.19
2018-03-22T14:04:26.430Z,94632.27
2018-03-22T14:06:52.426Z,94632.30
2018-03-22T14:09:18.417Z,94626.20
2018-03-22T14:11:44.429Z,94627.57
2018-03-22T14:14:10.413Z,94622.88
2018-03-22T14:16:36.427Z,94634.24
2018-03-22T14:19:02.459Z,94626.77
2018-03-22T14:21:28.413Z,94620.09
2018-03-22T14:23:54.406Z,94624.42
2018-03-22T14:26:20.426Z,94620.66
2018-03-22T14:28:46.387Z,94620.66
2018-03-22T14:31:12.433Z,94624.95
2018-03-22T14:33:38.422Z,94631.62
2018-03-22T14:36:04.445Z,94627.67
2018-03-22T14:38:30.440Z,94631.22
2018-03-22T14:40:56.420Z,94623.34
2018-03-22T14:43:22.476Z,94597.95
2018-03-22T14:45:48.445Z,94592.29
2018-03-22T14:48:14.410Z,94590.75
2018-03-22T14:50:40.425Z,94574.98
2018-03-22T14:53:06.379Z,94565.73
2018-03-22T14:55:32.433Z,94598.77
2018-03-22T14:57:58.421Z,94614.89
2018-03-22T15:00:24.411Z,94611.13
2018-03-22T15:02:50.422Z,94609.39
2018-03-22T15:05:16.462Z,94607.61
2018-03-22T15:07:42.399Z,94611.17
2018-03-22T15:10:08.378Z,94602.89
2018-03-22T15:12:34.377Z,94593.66
2018-03-22T15:15:00.369Z,94601.91
2018-03-22T15:17:26.370Z,94605.47
2018-03-22T15:19:52.360Z,94602.84
2018-03-22T15:22:18.494Z,94603.08
2018-03-22T15:24:44.449Z,94600.30
2018-03-22T15:27:11.576Z,94588.53
2018-03-22T15:29:42.327Z,94576.53
2018-03-22T15:32:08.327Z,94585.12
2018-03-22T15:34:34.380Z,94590.72
2018-03-22T15:37:00.418Z,94592.55
2018-03-22T15:39:26.405Z,94583.89
2018-03-22T15:41:58.332Z,94576.13
2018-03-22T15:44:24.293Z,94561.89
2018-03-22T15:46:50.284Z,94562.56
2018-03-22T15:49:16.290Z,94557.23
2018-03-22T15:51:42.314Z,94561.34
2018-03-22T15:54:08.305Z,94573.13
2018-03-22T15:56:34.316Z,94575.45
2018-03-22T15:59:00.316Z,94562.43
2018-03-22T16:01:26.356Z,94565.98
2018-03-22T16:03:52.346Z,94558.11
2018-03-22T16:06:18.339Z,94555.33
2018-03-22T16:08:44.367Z,94549.79
2018-03-22T16:11:10.321Z,94546.20
2018-03-22T16:13:36.374Z,94550.70
2018-03-22T16:16:03.288Z,94528.86
2018-03-22T16:18:29.375Z,94538.06
2018-03-22T16:20:55.347Z,94531.95
2018-03-22T16:23:21.385Z,94522.30
2018-03-22T16:25:47.445Z,94515.25
2018-03-22T16:28:13.386Z,94514.81
2018-03-22T16:30:39.439Z,94524.05
2018-03-22T16:33:05.428Z,94521.03
2018-03-22T16:35:31.414Z,94530.86
2018-03-22T16:37:57.439Z,94539.31
2018-03-22T16:40:23.430Z,94532.23
2018-03-22T16:42:49.558Z,94531.23
2018-03-22T16:45:16.306Z,94539.08
2018-03-22T16:47:42.281Z,94537.70
2018-03-22T16:50:08.282Z,94524.12
2018-03-22T16:52:34.317Z,94523.38
2018-03-22T16:55:00.315Z,94520.00
2018-03-22T16:57:26.336Z,94501.05
2018-03-22T16:59:52.364Z,94491.02
2018-03-22T17:02:18.319Z,94486.12
2018-03-22T17:04:44.318Z,94496.38
2018-03-22T17:07:10.316Z,94480.25
2018-03-22T17:09:36.307Z,94478.88
2018-03-22T17:12:02.331Z,94475.70
2018-03-22T17:14:28.322Z,94479.22
2018-03-22T17:16:54.310Z,94482.94
2018-03-22T17:19:20.321Z,94471.77
2018-03-22T17:21:46.305Z,94474.72
2018-03-22T17:24:12.322Z,94455.44
2018-03-22T17:26:38.279Z,94434.61
2018-03-22T17:29:04.268Z,94418.53
2018-03-22T17:31:30.260Z,94430.08
2018-03-22T17:33:56.250Z,94436.36
2018-03-22T17:36:22.244Z,94426.78
2018-03-22T17:38:48.235Z,94423.48
2018-03-22T17:41:14.255Z,94421.17
2018-03-22T17:43:40.257Z,94415.06
2018-03-22T17:46:06.311Z,94389.16
2018-03-22T17:48:32.971Z,94383.41
2018-03-22T17:50:59.008Z,94389.94
2018-03-22T17:53:24.990Z,94375.80
2018-03-22T17:55:50.978Z,94365.58
2018-03-22T17:58:16.967Z,94364.03
2018-03-22T18:00:42.990Z,94364.41
2018-03-22T18:03:08.944Z,94375.84
2018-03-22T18:05:34.961Z,94368.95
2018-03-22T18:08:00.946Z,94370.94
2018-03-22T18:10:26.966Z,94353.65
2018-03-22T18:12:52.926Z,94353.08
2018-03-22T18:15:18.909Z,94342.07
2018-03-22T18:17:44.905Z,94351.91
2018-03-22T18:20:10.903Z,94354.28
2018-03-22T18:22:36.973Z,94353.83
2018-03-22T18:25:02.927Z,94361.10
2018-03-22T18:27:28.951Z,94366.20
2018-03-22T18:29:54.905Z,94366.61
2018-03-22T18:32:20.895Z,94362.84
2018-03-22T18:34:46.955Z,94364.05
2018-03-22T18:37:12.944Z,94367.35
2018-03-22T18:39:38.939Z,94361.73
2018-03-22T18:42:04.938Z,94354.28
2018-03-22T18:44:30.921Z,94351.53
2018-03-22T18:46:57.024Z,94338.55
2018-03-22T18:49:23.083Z,94325.21
2018-03-22T18:51:49.362Z,94325.80
2018-03-22T18:54:15.325Z,94329.14
2018-03-22T18:56:41.335Z,94349.16
2018-03-22T18:59:07.450Z,94358.20
2018-03-22T19:01:33.524Z,94327.34
2018-03-22T19:03:59.502Z,94336.95
2018-03-22T19:06:25.458Z,94315.53
2018-03-22T19:08:51.450Z,94324.39
2018-03-22T19:11:17.437Z,94335.20
2018-03-22T19:13:43.469Z,94314.16
2018-03-22T19:16:09.473Z,94262.45
2018-03-22T19:18:35.494Z,94253.84
2018-03-22T19:21:01.475Z,94238.91
2018-03-22T19:23:27.462Z,94235.54
2018-03-22T19:25:53.454Z,94231.98
2018-03-22T19:28:19.451Z,94241.22
2018-03-22T19:30:45.467Z,94237.84
2018-03-22T19:33:11.460Z,94227.42
2018-03-22T19:35:37.450Z,94216.27
2018-03-22T19:38:03.467Z,94214.66
2018-03-22T19:40:29.459Z,94224.09
2018-03-22T19:42:55.445Z,94206.62
2018-03-22T19:45:21.469Z,94204.63
2018-03-22T19:47:47.444Z,94191.64
2018-03-22T19:50:13.466Z,94175.14
2018-03-22T19:52:39.481Z,94158.46
2018-03-22T19:55:05.469Z,94140.96
2018-03-22T19:57:31.470Z,94140.34
2018-03-22T19:59:57.462Z,94121.06
2018-03-22T20:02:23.493Z,94115.80
2018-03-22T20:04:49.480Z,94124.59
2018-03-22T20:07:15.469Z,94130.69
2018-03-22T20:09:41.467Z,94144.65
2018-03-22T20:12:07.513Z,94149.37
2018-03-22T20:14:33.497Z,94146.05
2018-03-22T20:16:59.490Z,94133.06
2018-03-22T20:19:25.486Z,94131.47
2018-03-22T20:21:51.469Z,94136.21
2018-03-22T20:24:17.464Z,94124.06
2018-03-22T20:26:43.465Z,94118.73
2018-03-22T20:29:09.501Z,94128.59
2018-03-22T20:31:35.516Z,94119.50
2018-03-22T20:34:01.543Z,94103.97
2018-03-22T20:36:27.537Z,94105.94
2018-03-22T20:38:53.554Z,94110.06
2018-03-22T20:41:19.543Z,94086.66
2018-03-22T20:43:45.538Z,94097.67
2018-03-22T20:46:11.497Z,94097.88
2018-03-22T20:48:37.494Z,94083.19
2018-03-22T20:51:03.483Z,94081.00
2018-03-22T20:53:29.518Z,94061.34
2018-03-22T20:55:55.509Z,94049.56
2018-03-22T20:58:21.500Z,94046.63
2018-03-22T21:00:47.514Z,94051.96
2018-03-22T21:03:13.530Z,94023.50
2018-03-22T21:05:39.490Z,93997.38
2018-03-22T21:08:05.492Z,93999.93
2018-03-22T21:10:31.477Z,93985.20
2018-03-22T21:12:57.469Z,93986.17
2018-03-22T21:15:23.463Z,93972.02
2018-03-22T21:17:49.488Z,93962.55
2018-03-22T21:20:15.450Z,93957.45
2018-03-22T21:22:41.440Z,93975.95
2018-03-22T21:25:07.430Z,93981.05
2018-03-22T21:27:33.455Z,93976.70
2018-03-22T21:29:59.440Z,93954.11
2018-03-22T21:32:25.408Z,93931.12
2018-03-22T21:34:51.390Z,93922.48
2018-03-22T21:37:17.418Z,93924.23
2018-03-22T21:39:43.376Z,93928.94
2018-03-22T21:42:09.369Z,93897.14
2018-03-22T21:44:35.365Z,93897.13
2018-03-22T21:47:01.389Z,93904.59
2018-03-22T21:49:27.378Z,93908.53
2018-03-22T21:51:53.397Z,93896.73
2018-03-22T21:54:19.354Z,93876.11
2018-03-22T21:56:45.379Z,93856.27
2018-03-22T21:59:11.336Z,93875.72
2018-03-22T22:01:37.330Z,93884.36
2018-03-22T22:04:03.323Z,93893.58
2018-03-22T22:06:29.353Z,93899.48
2018-03-22T22:08:55.310Z,93899.88
2018-03-22T22:11:21.302Z,93914.39
2018-03-22T22:13:47.302Z,93904.98
2018-03-22T22:16:13.288Z,93896.73
2018-03-22T22:18:39.301Z,93880.79
2018-03-22T22:21:05.319Z,93878.45
2018-03-22T22:23:31.278Z,93890.41
2018-03-22T22:25:57.303Z,93908.51
2018-03-22T22:28:23.262Z,93928.73
2018-03-22T22:30:49.281Z,93957.61
2018-03-22T22:33:15.270Z,93971.77
2018-03-22T22:35:41.257Z,93975.88
2018-03-22T22:38:07.249Z,93970.17
2018-03-22T22:40:33.240Z,93968.59
2018-03-22T22:42:59.232Z,93975.26
2018-03-22T22:45:25.246Z,93988.63
2018-03-22T22:47:51.259Z,94008.48
2018-03-22T22:50:17.246Z,94022.22
2018-03-22T22:52:43.202Z,94045.38
2018-03-22T22:55:09.194Z,94049.71
2018-03-22T22:57:35.179Z,94049.71
2018-03-22T23:00:01.166Z,94041.26
2018-03-22T23:02:27.162Z,94044.98
2018-03-22T23:04:53.183Z,94055.39
2018-03-22T23:07:19.141Z,94061.08
2018-03-22T23:09:45.140Z,94063.81
2018-03-22T23:12:11.127Z,94060.48
2018-03-22T23:14:37.118Z,94042.22
2018-03-22T23:17:03.136Z,93993.33
2018-03-22T23:19:29.098Z,93981.32
2018-03-22T23:21:55.119Z,93980.95
2018-03-22T23:24:21.105Z,93950.88
2018-03-22T23:26:47.138Z,93928.69
2018-03-22T23:29:13.130Z,93924.94
2018-03-22T23:31:39.148Z,93931.23
2018-03-22T23:34:05.174Z,93922.59
2018-03-22T23:36:31.153Z,93867.61
2018-03-22T23:38:57.114Z,93866.03
2018-03-22T23:41:23.100Z,93870.55
2018-03-22T23:43:49.090Z,93896.46
2018-03-22T23:48:41.065Z,93908.66
2018-03-22T23:51:07.052Z,93879.97
2018-03-22T23:53:33.039Z,93867.98
2018-03-22T23:55:59.028Z,93873.30
2018-03-22T23:58:25.008Z,93864.44
